createdAt,value
2023-05-14T00:01:02.313Z,56.75
2023-05-14T00:03:32.739Z,56.09
2023-05-14T00:06:01.660Z,56.47
2023-05-14T00:08:30.562Z,55.84
2023-05-14T00:10:59.359Z,55.97
2023-05-14T00:13:28.224Z,56.09
2023-05-14T00:15:57.138Z,56.14
2023-05-14T00:18:26.123Z,56.18
2023-05-14T00:20:56.420Z,55.36
2023-05-14T00:23:25.571Z,56.59
2023-05-14T00:25:54.436Z,56.06
2023-05-14T00:28:23.251Z,56.34
2023-05-14T00:30:52.293Z,56.49
2023-05-14T00:33:21.079Z,56.75
2023-05-14T00:35:50.281Z,56.58
2023-05-14T00:38:20.661Z,56.67
2023-05-14T00:40:52.029Z,56.65
2023-05-14T00:43:22.617Z,56.64
2023-05-14T00:45:52.437Z,56.68
2023-05-14T00:48:22.907Z,55.43
2023-05-14T00:50:52.287Z,56.06
2023-05-14T00:53:22.691Z,56.20
2023-05-14T00:55:52.061Z,56.10
2023-05-14T00:58:21.031Z,56.18
2023-05-14T01:00:50.063Z,55.93
2023-05-14T01:03:19.267Z,55.81
2023-05-14T01:06:02.232Z,56.81
2023-05-14T01:08:41.763Z,57.19
2023-05-14T01:11:21.409Z,55.99
2023-05-14T01:14:01.980Z,55.90
2023-05-14T01:16:34.368Z,55.29
2023-05-14T01:19:06.404Z,55.75
2023-05-14T01:21:40.487Z,54.60
2023-05-14T01:24:09.689Z,54.54
2023-05-14T01:26:38.810Z,54.08
2023-05-14T01:29:14.950Z,54.01
2023-05-14T01:31:47.191Z,53.44
2023-05-14T01:34:17.257Z,54.19
2023-05-14T01:36:49.301Z,53.70
2023-05-14T01:39:20.451Z,53.09
2023-05-14T01:41:50.258Z,53.00
2023-05-14T01:44:19.740Z,53.64
2023-05-14T01:46:48.648Z,54.12
2023-05-14T01:49:18.669Z,54.43
2023-05-14T01:51:49.282Z,53.83
2023-05-14T01:54:18.210Z,54.48
2023-05-14T01:56:47.265Z,54.23
2023-05-14T01:59:16.111Z,54.34
2023-05-14T02:01:45.038Z,54.55
2023-05-14T02:04:13.979Z,53.72
2023-05-14T02:06:43.788Z,53.59
2023-05-14T02:09:14.149Z,54.24
2023-05-14T02:11:42.970Z,54.24
2023-05-14T02:14:11.861Z,54.13
2023-05-14T02:16:40.750Z,53.95
2023-05-14T02:19:09.704Z,54.43
2023-05-14T02:21:38.643Z,55.18
2023-05-14T02:24:07.529Z,55.53
2023-05-14T02:26:38.285Z,55.41
2023-05-14T02:29:07.300Z,55.75
2023-05-14T02:31:36.871Z,55.79
2023-05-14T02:34:07.016Z,54.42
2023-05-14T02:36:35.863Z,54.32
2023-05-14T02:39:04.955Z,55.98
2023-05-14T02:41:33.889Z,54.99
2023-05-14T02:44:04.193Z,55.78
2023-05-14T02:46:33.501Z,56.52
2023-05-14T02:49:04.130Z,57.89
2023-05-14T02:51:32.949Z,57.40
2023-05-14T02:54:01.858Z,57.74
2023-05-14T02:56:30.719Z,57.87
2023-05-14T02:58:59.546Z,59.09
2023-05-14T03:01:31.309Z,59.73
2023-05-14T03:04:00.775Z,61.58
2023-05-14T03:06:29.851Z,67.01
2023-05-14T03:08:58.740Z,67.89
2023-05-14T03:11:27.626Z,72.86
2023-05-14T03:13:56.475Z,74.74
2023-05-14T03:16:25.411Z,80.21
2023-05-14T03:18:55.670Z,81.72
2023-05-14T03:21:24.952Z,90.69
2023-05-14T03:23:54.459Z,100.00
2023-05-14T03:26:23.243Z,100.00
2023-05-14T03:28:55.016Z,100.00
2023-05-14T03:31:23.968Z,100.00
2023-05-14T03:33:53.079Z,100.00
2023-05-14T03:36:23.495Z,100.00
2023-05-14T03:38:52.308Z,100.00
2023-05-14T03:41:21.992Z,100.00
2023-05-14T03:43:50.824Z,100.00
2023-05-14T03:46:19.684Z,100.00
2023-05-14T03:48:48.699Z,100.00
2023-05-14T03:51:17.709Z,100.00
2023-05-14T03:53:47.980Z,100.00
2023-05-14T03:56:17.237Z,100.00
2023-05-14T03:58:46.158Z,100.00
2023-05-14T04:01:17.027Z,100.00
2023-05-14T04:03:46.300Z,100.00
2023-05-14T04:06:16.196Z,100.00
2023-05-14T04:08:45.045Z,100.00
2023-05-14T04:11:15.236Z,100.00
2023-05-14T04:13:44.122Z,100.00
2023-05-14T04:16:13.082Z,89.69
2023-05-14T04:18:42.062Z,100.00
2023-05-14T04:21:10.963Z,100.00
2023-05-14T04:23:39.780Z,100.00
2023-05-14T04:26:08.623Z,100.00
2023-05-14T04:28:38.891Z,100.00
2023-05-14T04:31:07.692Z,100.00
2023-05-14T04:33:36.506Z,100.00
2023-05-14T04:36:06.444Z,100.00
2023-05-14T04:38:35.349Z,100.00
2023-05-14T04:41:04.475Z,100.00
2023-05-14T04:43:33.299Z,100.00
2023-05-14T04:46:03.552Z,100.00
2023-05-14T04:48:32.421Z,100.00
2023-05-14T04:51:02.043Z,100.00
2023-05-14T04:53:30.916Z,100.00
2023-05-14T04:55:59.766Z,100.00
2023-05-14T04:58:29.250Z,100.00
2023-05-14T05:00:58.141Z,100.00
2023-05-14T05:03:28.500Z,100.00
2023-05-14T05:05:57.413Z,100.00
2023-05-14T05:08:26.300Z,100.00
2023-05-14T05:10:55.167Z,100.00
2023-05-14T05:13:23.977Z,100.00
2023-05-14T05:15:52.864Z,100.00
2023-05-14T05:18:21.806Z,100.00
2023-05-14T05:20:52.108Z,100.00
2023-05-14T05:23:20.965Z,100.00
2023-05-14T05:25:50.456Z,100.00
2023-05-14T05:28:19.336Z,100.00
2023-05-14T05:30:48.297Z,100.00
2023-05-14T05:33:17.411Z,100.00
2023-05-14T05:35:46.401Z,100.00
2023-05-14T05:38:18.308Z,100.00
2023-05-14T05:40:47.160Z,100.00
2023-05-14T05:43:16.785Z,100.00
2023-05-14T05:45:46.031Z,100.00
2023-05-14T05:48:14.935Z,100.00
2023-05-14T05:50:44.922Z,100.00
2023-05-14T05:53:13.843Z,100.00
2023-05-14T05:55:44.116Z,100.00
2023-05-14T05:58:15.729Z,100.00
2023-05-14T06:00:44.619Z,100.00
2023-05-14T06:03:13.544Z,100.00
2023-05-14T06:05:42.562Z,100.00
2023-05-14T06:08:11.600Z,100.00
2023-05-14T06:10:40.458Z,100.00
2023-05-14T06:13:10.772Z,100.00
2023-05-14T06:15:39.632Z,100.00
2023-05-14T06:18:08.528Z,100.00
2023-05-14T06:20:37.465Z,100.00
2023-05-14T06:23:07.857Z,100.00
2023-05-14T06:25:36.741Z,100.00
2023-05-14T06:28:05.887Z,100.00
2023-05-14T06:30:36.169Z,100.00
2023-05-14T06:33:05.213Z,100.00
2023-05-14T06:35:34.678Z,100.00
2023-05-14T06:38:03.872Z,100.00
2023-05-14T06:40:32.663Z,100.00
2023-05-14T06:43:02.495Z,100.00
2023-05-14T06:45:33.316Z,100.00
2023-05-14T06:48:04.101Z,100.00
2023-05-14T06:50:33.072Z,100.00
2023-05-14T06:53:01.857Z,100.00
2023-05-14T06:55:30.667Z,100.00
2023-05-14T06:57:59.451Z,100.00
2023-05-14T07:00:29.297Z,100.00
2023-05-14T07:02:58.179Z,100.00
2023-05-14T07:05:28.552Z,100.00
2023-05-14T07:07:58.666Z,100.00
2023-05-14T07:10:27.584Z,100.00
2023-05-14T07:12:56.561Z,100.00
2023-05-14T07:15:25.378Z,100.00
2023-05-14T07:17:54.219Z,100.00
2023-05-14T07:20:24.121Z,100.00
2023-05-14T07:22:55.144Z,100.00
2023-05-14T07:25:23.970Z,100.00
2023-05-14T07:27:52.796Z,100.00
2023-05-14T07:30:22.083Z,100.00
2023-05-14T07:32:51.143Z,100.00
2023-05-14T07:35:20.185Z,100.00
2023-05-14T07:37:49.092Z,100.00
2023-05-14T07:40:19.479Z,100.00
2023-05-14T07:42:48.299Z,100.00
2023-05-14T07:45:17.338Z,100.00
2023-05-14T07:47:46.172Z,100.00
2023-05-14T07:50:15.456Z,100.00
2023-05-14T07:52:44.269Z,100.00
2023-05-14T07:55:13.809Z,100.00
2023-05-14T07:57:43.979Z,100.00
2023-05-14T08:00:13.954Z,100.00
2023-05-14T08:02:42.940Z,100.00
2023-05-14T08:05:12.114Z,100.00
2023-05-14T08:07:41.467Z,100.00
2023-05-14T08:10:11.145Z,100.00
2023-05-14T08:12:40.080Z,100.00
2023-05-14T08:15:11.780Z,100.00
2023-05-14T08:17:40.710Z,100.00
2023-05-14T08:20:11.998Z,100.00
2023-05-14T08:22:41.046Z,100.00
2023-05-14T08:25:10.545Z,100.00
2023-05-14T08:27:39.422Z,100.00
2023-05-14T08:30:10.716Z,100.00
2023-05-14T08:32:39.630Z,100.00
2023-05-14T08:35:09.322Z,100.00
2023-05-14T08:37:38.250Z,100.00
2023-05-14T08:40:08.838Z,100.00
2023-05-14T08:42:40.580Z,100.00
2023-05-14T08:45:17.579Z,100.00
2023-05-14T08:47:49.678Z,100.00
2023-05-14T08:50:21.931Z,100.00
2023-05-14T08:52:52.891Z,100.00
2023-05-14T08:55:22.536Z,100.00
2023-05-14T08:57:51.355Z,100.00
2023-05-14T09:00:23.339Z,100.00
2023-05-14T09:02:53.461Z,100.00
2023-05-14T09:05:23.337Z,100.00
2023-05-14T09:07:52.202Z,100.00
2023-05-14T09:10:21.553Z,100.00
2023-05-14T09:12:50.541Z,100.00
2023-05-14T09:15:21.114Z,100.00
2023-05-14T09:17:50.078Z,100.00
2023-05-14T09:20:19.688Z,100.00
2023-05-14T09:22:48.603Z,100.00
2023-05-14T09:25:17.728Z,100.00
2023-05-14T09:27:50.258Z,100.00
2023-05-14T09:30:19.357Z,100.00
2023-05-14T09:32:50.662Z,100.00
2023-05-14T09:35:21.359Z,100.00
2023-05-14T09:37:51.849Z,100.00
2023-05-14T09:40:22.322Z,100.00
2023-05-14T09:42:51.579Z,100.00
2023-05-14T09:45:20.581Z,100.00
2023-05-14T09:47:51.484Z,100.00
2023-05-14T09:50:20.529Z,100.00
2023-05-14T09:52:49.429Z,100.00
2023-05-14T09:55:18.946Z,100.00
2023-05-14T09:57:47.733Z,100.00
2023-05-14T10:00:17.204Z,100.00
2023-05-14T10:02:48.896Z,100.00
2023-05-14T10:05:20.560Z,100.00
2023-05-14T10:07:52.656Z,100.00
2023-05-14T10:10:25.752Z,100.00
2023-05-14T10:12:59.172Z,100.00
2023-05-14T10:15:34.527Z,100.00
2023-05-14T10:18:05.437Z,100.00
2023-05-14T10:20:38.203Z,100.00
2023-05-14T10:23:07.730Z,100.00
2023-05-14T10:25:37.595Z,100.00
2023-05-14T10:28:07.681Z,100.00
2023-05-14T10:30:36.447Z,100.00
2023-05-14T10:33:09.984Z,100.00
2023-05-14T10:35:57.934Z,100.00
2023-05-14T10:38:31.552Z,100.00
2023-05-14T10:41:02.247Z,100.00
2023-05-14T10:43:32.309Z,100.00
2023-05-14T10:46:02.831Z,100.00
2023-05-14T10:48:33.090Z,100.00
2023-05-14T10:51:03.914Z,100.00
2023-05-14T10:53:34.786Z,100.00
2023-05-14T10:56:08.421Z,100.00
2023-05-14T10:58:39.209Z,100.00
2023-05-14T11:01:09.361Z,100.00
2023-05-14T11:03:43.016Z,100.00
2023-05-14T11:06:15.203Z,100.00
2023-05-14T11:08:46.348Z,100.00
2023-05-14T11:11:15.768Z,100.00
2023-05-14T11:13:45.943Z,100.00
2023-05-14T11:16:23.347Z,100.00
2023-05-14T11:19:04.004Z,100.00
2023-05-14T11:21:34.380Z,100.00
2023-05-14T11:24:05.410Z,100.00
2023-05-14T11:26:34.971Z,100.00
2023-05-14T11:29:05.963Z,100.00
2023-05-14T11:31:35.741Z,100.00
2023-05-14T11:34:06.913Z,100.00
2023-05-14T11:36:39.014Z,100.00
2023-05-14T11:39:08.540Z,100.00
2023-05-14T11:41:37.466Z,100.00
2023-05-14T11:44:08.498Z,100.00
2023-05-14T11:46:38.050Z,100.00
2023-05-14T11:49:07.255Z,100.00
2023-05-14T11:51:38.953Z,100.00
2023-05-14T11:54:07.782Z,100.00
2023-05-14T11:56:36.636Z,100.00
2023-05-14T11:59:05.481Z,100.00
2023-05-14T12:01:38.088Z,100.00
2023-05-14T12:04:07.589Z,100.00
2023-05-14T12:06:36.620Z,100.00
2023-05-14T12:09:08.082Z,100.00
2023-05-14T12:11:38.846Z,100.00
2023-05-14T12:14:13.279Z,100.00
2023-05-14T12:16:43.118Z,100.00
2023-05-14T12:19:12.725Z,100.00
2023-05-14T12:21:41.994Z,100.00
2023-05-14T12:24:13.682Z,100.00
2023-05-14T12:26:45.753Z,100.00
2023-05-14T12:29:15.939Z,100.00
2023-05-14T12:31:48.794Z,100.00
2023-05-14T12:34:18.167Z,100.00
2023-05-14T12:36:47.019Z,100.00
2023-05-14T12:39:17.634Z,100.00
2023-05-14T12:41:46.547Z,100.00
2023-05-14T12:44:15.532Z,100.00
2023-05-14T12:46:44.375Z,100.00
2023-05-14T12:49:13.255Z,100.00
2023-05-14T12:51:42.202Z,100.00
2023-05-14T12:54:11.979Z,100.00
2023-05-14T12:56:42.358Z,100.00
2023-05-14T12:59:11.242Z,100.00
2023-05-14T13:01:40.247Z,100.00
2023-05-14T13:04:12.352Z,100.00
2023-05-14T13:06:41.739Z,100.00
2023-05-14T13:09:10.593Z,100.00
2023-05-14T13:11:39.457Z,100.00
2023-05-14T13:14:09.611Z,100.00
2023-05-14T13:16:38.506Z,100.00
2023-05-14T13:19:07.592Z,100.00
2023-05-14T13:21:36.445Z,100.00
2023-05-14T13:24:05.628Z,100.00
2023-05-14T13:26:34.458Z,100.00
2023-05-14T13:29:03.840Z,100.00
2023-05-14T13:31:34.149Z,100.00
2023-05-14T13:34:04.320Z,100.00
2023-05-14T13:36:33.285Z,100.00
2023-05-14T13:39:02.883Z,100.00
2023-05-14T13:41:34.964Z,100.00
2023-05-14T13:44:04.180Z,100.00
2023-05-14T13:46:34.583Z,100.00
2023-05-14T13:49:03.770Z,100.00
2023-05-14T13:51:32.597Z,100.00
2023-05-14T13:54:02.105Z,100.00
2023-05-14T13:56:30.902Z,100.00
2023-05-14T13:58:59.782Z,100.00
2023-05-14T14:01:30.835Z,100.00
2023-05-14T14:04:02.054Z,100.00
2023-05-14T14:06:32.963Z,100.00
2023-05-14T14:09:02.062Z,100.00
2023-05-14T14:11:31.014Z,100.00
2023-05-14T14:13:59.825Z,100.00
2023-05-14T14:16:28.750Z,100.00
2023-05-14T14:18:57.654Z,100.00
2023-05-14T14:21:28.601Z,100.00
2023-05-14T14:23:57.747Z,100.00
2023-05-14T14:26:27.901Z,100.00
2023-05-14T14:28:56.999Z,100.00
2023-05-14T14:31:25.934Z,100.00
2023-05-14T14:33:54.805Z,100.00
2023-05-14T14:36:23.710Z,100.00
2023-05-14T14:38:53.944Z,100.00
2023-05-14T14:41:23.587Z,100.00
2023-05-14T14:43:52.498Z,100.00
2023-05-14T14:46:21.395Z,100.00
2023-05-14T14:48:50.270Z,100.00
2023-05-14T14:51:19.110Z,100.00
2023-05-14T14:53:47.957Z,100.00
2023-05-14T14:56:18.230Z,100.00
2023-05-14T14:58:47.039Z,100.00
2023-05-14T15:01:17.059Z,100.00
2023-05-14T15:03:48.273Z,100.00
2023-05-14T15:06:17.160Z,100.00
2023-05-14T15:08:45.964Z,100.00
2023-05-14T15:11:15.540Z,100.00
2023-05-14T15:13:45.853Z,100.00
2023-05-14T15:16:15.639Z,100.00
2023-05-14T15:18:44.530Z,100.00
2023-05-14T15:21:13.448Z,100.00
2023-05-14T15:23:42.272Z,100.00
2023-05-14T15:26:11.078Z,100.00
2023-05-14T15:28:39.891Z,100.00
2023-05-14T15:31:10.234Z,100.00
2023-05-14T15:33:39.293Z,100.00
2023-05-14T15:36:08.677Z,100.00
2023-05-14T15:38:37.480Z,100.00
2023-05-14T15:41:06.812Z,100.00
2023-05-14T15:43:35.771Z,100.00
2023-05-14T15:46:04.588Z,100.00
2023-05-14T15:48:35.905Z,100.00
2023-05-14T15:51:05.264Z,100.00
2023-05-14T15:53:34.081Z,100.00
2023-05-14T15:56:03.636Z,100.00
2023-05-14T15:58:32.591Z,100.00
2023-05-14T16:01:02.128Z,100.00
2023-05-14T16:03:31.089Z,100.00
2023-05-14T16:06:02.060Z,100.00
2023-05-14T16:08:31.065Z,100.00
2023-05-14T16:10:59.947Z,100.00
2023-05-14T16:13:29.820Z,100.00
2023-05-14T16:15:59.544Z,100.00
2023-05-14T16:18:28.458Z,100.00
2023-05-14T16:20:57.327Z,100.00
2023-05-14T16:23:27.782Z,100.00
2023-05-14T16:25:56.634Z,100.00
2023-05-14T16:28:25.461Z,100.00
2023-05-14T16:30:54.295Z,100.00
2023-05-14T16:33:23.130Z,100.00
2023-05-14T16:35:52.359Z,100.00
2023-05-14T16:38:21.191Z,100.00
2023-05-14T16:40:51.771Z,100.00
2023-05-14T16:43:20.660Z,100.00
2023-05-14T16:45:49.524Z,100.00
2023-05-14T16:48:18.476Z,100.00
2023-05-14T16:50:47.332Z,100.00
2023-05-14T16:53:16.129Z,100.00
2023-05-14T16:55:45.024Z,100.00
2023-05-14T16:58:15.227Z,100.00
2023-05-14T17:00:44.024Z,100.00
2023-05-14T17:03:12.906Z,100.00
2023-05-14T17:05:41.801Z,100.00
2023-05-14T17:08:10.732Z,100.00
2023-05-14T17:10:39.587Z,100.00
2023-05-14T17:13:08.498Z,100.00
2023-05-14T17:15:40.246Z,100.00
2023-05-14T17:18:09.373Z,100.00
2023-05-14T17:20:38.272Z,100.00
2023-05-14T17:23:07.099Z,100.00
2023-05-14T17:25:36.035Z,100.00
2023-05-14T17:28:05.043Z,100.00
2023-05-14T17:30:33.936Z,100.00
2023-05-14T17:33:04.431Z,100.00
2023-05-14T17:35:35.854Z,100.00
2023-05-14T17:38:05.128Z,100.00
2023-05-14T17:40:34.263Z,100.00
2023-05-14T17:43:03.040Z,100.00
2023-05-14T17:45:39.270Z,100.00
2023-05-14T17:48:13.225Z,100.00
2023-05-14T17:50:43.278Z,100.00
2023-05-14T17:53:12.204Z,100.00
2023-05-14T17:55:43.761Z,100.00
2023-05-14T17:58:13.570Z,100.00
2023-05-14T18:00:43.638Z,100.00
2023-05-14T18:03:14.804Z,100.00
2023-05-14T18:05:43.728Z,100.00
2023-05-14T18:08:12.558Z,100.00
2023-05-14T18:10:41.370Z,100.00
2023-05-14T18:13:10.208Z,100.00
2023-05-14T18:15:39.099Z,100.00
2023-05-14T18:18:08.090Z,100.00
2023-05-14T18:20:38.449Z,100.00
2023-05-14T18:23:07.345Z,100.00
2023-05-14T18:25:36.214Z,100.00
2023-05-14T18:28:05.442Z,100.00
2023-05-14T18:30:34.442Z,100.00
2023-05-14T18:33:04.354Z,100.00
2023-05-14T18:35:33.192Z,100.00
2023-05-14T18:38:03.889Z,100.00
2023-05-14T18:40:32.721Z,100.00
2023-05-14T18:43:02.140Z,100.00
2023-05-14T18:45:31.052Z,100.00
2023-05-14T18:47:59.923Z,100.00
2023-05-14T18:50:30.762Z,100.00
2023-05-14T18:52:59.653Z,100.00
2023-05-14T18:55:29.985Z,100.00
2023-05-14T18:57:58.947Z,100.00
2023-05-14T19:00:28.293Z,100.00
2023-05-14T19:02:57.172Z,100.00
2023-05-14T19:05:26.439Z,100.00
2023-05-14T19:07:55.490Z,100.00
2023-05-14T19:10:24.366Z,100.00
2023-05-14T19:12:54.590Z,100.00
2023-05-14T19:15:23.584Z,100.00
2023-05-14T19:17:54.062Z,100.00
2023-05-14T19:20:23.035Z,100.00
2023-05-14T19:22:51.833Z,100.00
2023-05-14T19:25:20.651Z,100.00
2023-05-14T19:27:51.185Z,100.00
2023-05-14T19:30:22.905Z,100.00
2023-05-14T19:32:51.842Z,100.00
2023-05-14T19:35:20.761Z,100.00
2023-05-14T19:37:49.599Z,100.00
2023-05-14T19:40:18.672Z,100.00
2023-05-14T19:42:48.102Z,100.00
2023-05-14T19:45:16.972Z,100.00
2023-05-14T19:47:47.286Z,100.00
2023-05-14T19:50:16.199Z,100.00
2023-05-14T19:52:45.044Z,100.00
2023-05-14T19:55:13.860Z,100.00
2023-05-14T19:57:42.690Z,100.00
2023-05-14T20:00:14.194Z,100.00
2023-05-14T20:02:43.318Z,100.00
2023-05-14T20:05:14.074Z,100.00
2023-05-14T20:07:43.855Z,100.00
2023-05-14T20:10:12.914Z,100.00
2023-05-14T20:12:41.693Z,100.00
2023-05-14T20:15:11.428Z,100.00
2023-05-14T20:17:40.487Z,100.00
2023-05-14T20:20:10.302Z,100.00
2023-05-14T20:22:40.615Z,100.00
2023-05-14T20:25:10.237Z,100.00
2023-05-14T20:27:39.236Z,100.00
2023-05-14T20:30:09.257Z,100.00
2023-05-14T20:32:38.380Z,100.00
2023-05-14T20:35:08.160Z,100.00
2023-05-14T20:37:37.948Z,100.00
2023-05-14T20:40:12.500Z,100.00
2023-05-14T20:42:42.150Z,100.00
2023-05-14T20:45:12.001Z,100.00
2023-05-14T20:47:41.637Z,100.00
2023-05-14T20:50:10.845Z,100.00
2023-05-14T20:52:39.973Z,100.00
2023-05-14T20:55:11.179Z,100.00
2023-05-14T20:57:40.652Z,100.00
2023-05-14T21:00:37.776Z,100.00
2023-05-14T21:03:06.852Z,100.00
2023-05-14T21:05:35.962Z,100.00
2023-05-14T21:08:04.929Z,100.00
2023-05-14T21:10:35.162Z,100.00
2023-05-14T21:13:04.167Z,100.00
2023-05-14T21:15:33.039Z,100.00
2023-05-14T21:18:03.275Z,100.00
2023-05-14T21:20:32.197Z,100.00
2023-05-14T21:23:01.000Z,100.00
2023-05-14T21:25:29.988Z,100.00
2023-05-14T21:28:00.156Z,100.00
2023-05-14T21:30:29.255Z,100.00
2023-05-14T21:32:58.213Z,100.00
2023-05-14T21:35:27.406Z,100.00
2023-05-14T21:37:56.359Z,100.00
2023-05-14T21:40:25.195Z,100.00
2023-05-14T21:42:54.017Z,100.00
2023-05-14T21:45:24.264Z,100.00
2023-05-14T21:47:53.244Z,100.00
2023-05-14T21:50:22.199Z,100.00
2023-05-14T21:52:51.274Z,100.00
2023-05-14T21:55:20.104Z,100.00
2023-05-14T21:57:48.980Z,100.00
2023-05-14T22:00:23.374Z,100.00
2023-05-14T22:02:54.328Z,100.00
2023-05-14T22:05:23.747Z,100.00
2023-05-14T22:07:53.327Z,100.00
2023-05-14T22:10:22.207Z,100.00
2023-05-14T22:12:51.178Z,100.00
2023-05-14T22:15:20.092Z,100.00
2023-05-14T22:17:49.466Z,100.00
2023-05-14T22:20:19.803Z,100.00
2023-05-14T22:22:48.624Z,100.00
2023-05-14T22:25:17.628Z,100.00
2023-05-14T22:27:46.457Z,100.00
2023-05-14T22:30:16.882Z,100.00
2023-05-14T22:32:45.846Z,100.00
2023-05-14T22:35:14.730Z,100.00
2023-05-14T22:37:45.044Z,100.00
2023-05-14T22:40:14.695Z,100.00
2023-05-14T22:42:43.735Z,100.00
2023-05-14T22:45:12.812Z,100.00
2023-05-14T22:47:41.823Z,100.00
2023-05-14T22:50:12.249Z,100.00
2023-05-14T22:52:41.611Z,100.00
2023-05-14T22:55:11.837Z,100.00
2023-05-14T22:57:40.810Z,100.00
2023-05-14T23:00:11.232Z,100.00
2023-05-14T23:02:40.300Z,100.00
2023-05-14T23:05:10.138Z,100.00
2023-05-14T23:07:39.109Z,100.00
2023-05-14T23:10:08.723Z,100.00
2023-05-14T23:12:39.050Z,100.00
2023-05-14T23:15:08.565Z,100.00
2023-05-14T23:17:37.575Z,100.00
2023-05-14T23:20:10.537Z,100.00
2023-05-14T23:22:39.758Z,100.00
2023-05-14T23:25:09.362Z,100.00
2023-05-14T23:27:39.625Z,100.00
2023-05-14T23:30:09.440Z,100.00
2023-05-14T23:32:38.319Z,100.00
2023-05-14T23:35:07.531Z,100.00
2023-05-14T23:37:41.663Z,100.00
2023-05-14T23:40:11.282Z,100.00
2023-05-14T23:42:41.975Z,100.00
2023-05-14T23:45:11.777Z,100.00
2023-05-14T23:47:41.371Z,100.00
2023-05-14T23:50:10.717Z,100.00
2023-05-14T23:52:39.611Z,100.00
2023-05-14T23:55:08.957Z,100.00
2023-05-14T23:57:37.883Z,100.00
